sensor_id;sensor_type;location;lat;lon;timestamp;P1;durP1;ratioP1;P2;durP2;ratioP2
62711;SDS011;48772;55.586;37.730;2023-08-06T00:00:27;19.70;;;9.88;;
62711;SDS011;48772;55.586;37.730;2023-08-06T00:02:54;20.42;;;9.52;;
62711;SDS011;48772;55.586;37.730;2023-08-06T00:05:19;17.70;;;8.43;;
62711;SDS011;48772;55.586;37.730;2023-08-06T00:07:48;14.35;;;8.48;;
62711;SDS011;48772;55.586;37.730;2023-08-06T00:10:15;16.55;;;8.35;;
62711;SDS011;48772;55.586;37.730;2023-08-06T00:12:41;22.38;;;12.55;;
62711;SDS011;48772;55.586;37.730;2023-08-06T00:15:07;13.82;;;6.43;;
62711;SDS011;48772;55.586;37.730;2023-08-06T00:17:34;21.40;;;11.93;;
62711;SDS011;48772;55.586;37.730;2023-08-06T00:20:01;11.98;;;5.57;;
62711;SDS011;48772;55.586;37.730;2023-08-06T00:22:35;11.40;;;5.63;;
62711;SDS011;48772;55.586;37.730;2023-08-06T00:25:03;10.77;;;4.57;;
62711;SDS011;48772;55.586;37.730;2023-08-06T00:27:32;10.52;;;4.75;;
62711;SDS011;48772;55.586;37.730;2023-08-06T00:29:58;8.68;;;4.57;;
62711;SDS011;48772;55.586;37.730;2023-08-06T00:32:24;7.55;;;4.90;;
62711;SDS011;48772;55.586;37.730;2023-08-06T00:34:51;9.43;;;4.88;;
62711;SDS011;48772;55.586;37.730;2023-08-06T00:37:18;6.85;;;4.28;;
62711;SDS011;48772;55.586;37.730;2023-08-06T00:39:44;9.15;;;4.72;;
62711;SDS011;48772;55.586;37.730;2023-08-06T00:42:11;11.25;;;4.72;;
62711;SDS011;48772;55.586;37.730;2023-08-06T00:44:38;10.48;;;4.75;;
62711;SDS011;48772;55.586;37.730;2023-08-06T00:47:05;14.38;;;5.57;;
62711;SDS011;48772;55.586;37.730;2023-08-06T00:49:33;11.82;;;4.82;;
62711;SDS011;48772;55.586;37.730;2023-08-06T00:52:02;6.10;;;4.65;;
62711;SDS011;48772;55.586;37.730;2023-08-06T00:54:29;8.23;;;4.72;;
62711;SDS011;48772;55.586;37.730;2023-08-06T00:56:56;7.57;;;4.65;;
62711;SDS011;48772;55.586;37.730;2023-08-06T00:59:24;7.82;;;4.75;;
62711;SDS011;48772;55.586;37.730;2023-08-06T01:01:51;12.00;;;5.50;;
62711;SDS011;48772;55.586;37.730;2023-08-06T01:04:17;8.35;;;4.47;;
62711;SDS011;48772;55.586;37.730;2023-08-06T01:06:52;8.18;;;5.18;;
62711;SDS011;48772;55.586;37.730;2023-08-06T01:09:25;6.85;;;5.15;;
62711;SDS011;48772;55.586;37.730;2023-08-06T01:17:26;13.68;;;5.43;;
62711;SDS011;48772;55.586;37.730;2023-08-06T01:19:52;9.60;;;5.60;;
62711;SDS011;48772;55.586;37.730;2023-08-06T01:22:18;7.85;;;4.70;;
62711;SDS011;48772;55.586;37.730;2023-08-06T01:24:47;14.50;;;6.50;;
62711;SDS011;48772;55.586;37.730;2023-08-06T01:27:21;8.63;;;5.07;;
62711;SDS011;48772;55.586;37.730;2023-08-06T01:29:53;10.57;;;5.47;;
62711;SDS011;48772;55.586;37.730;2023-08-06T01:32:31;12.77;;;5.38;;
62711;SDS011;48772;55.586;37.730;2023-08-06T01:35:01;12.20;;;5.22;;
62711;SDS011;48772;55.586;37.730;2023-08-06T01:37:31;10.57;;;4.80;;
62711;SDS011;48772;55.586;37.730;2023-08-06T01:39:57;7.90;;;5.10;;
62711;SDS011;48772;55.586;37.730;2023-08-06T01:42:24;9.65;;;5.03;;
62711;SDS011;48772;55.586;37.730;2023-08-06T01:44:50;6.07;;;5.13;;
62711;SDS011;48772;55.586;37.730;2023-08-06T01:47:16;8.85;;;4.90;;
62711;SDS011;48772;55.586;37.730;2023-08-06T01:49:42;11.90;;;5.15;;
62711;SDS011;48772;55.586;37.730;2023-08-06T01:52:08;7.38;;;4.90;;
62711;SDS011;48772;55.586;37.730;2023-08-06T01:54:34;9.40;;;5.22;;
62711;SDS011;48772;55.586;37.730;2023-08-06T01:57:00;8.48;;;5.10;;
62711;SDS011;48772;55.586;37.730;2023-08-06T01:59:25;13.02;;;5.30;;
62711;SDS011;48772;55.586;37.730;2023-08-06T02:01:51;7.57;;;5.30;;
62711;SDS011;48772;55.586;37.730;2023-08-06T02:04:17;13.10;;;5.47;;
62711;SDS011;48772;55.586;37.730;2023-08-06T02:06:44;15.25;;;5.57;;
62711;SDS011;48772;55.586;37.730;2023-08-06T02:09:09;8.75;;;5.18;;
62711;SDS011;48772;55.586;37.730;2023-08-06T02:11:35;9.90;;;4.97;;
62711;SDS011;48772;55.586;37.730;2023-08-06T02:14:01;8.07;;;5.05;;
62711;SDS011;48772;55.586;37.730;2023-08-06T02:16:28;12.55;;;5.00;;
62711;SDS011;48772;55.586;37.730;2023-08-06T02:18:54;11.77;;;6.40;;
62711;SDS011;48772;55.586;37.730;2023-08-06T02:21:32;13.68;;;6.00;;
62711;SDS011;48772;55.586;37.730;2023-08-06T02:23:58;6.28;;;4.97;;
62711;SDS011;48772;55.586;37.730;2023-08-06T02:26:24;7.20;;;5.40;;
62711;SDS011;48772;55.586;37.730;2023-08-06T02:28:50;7.97;;;5.40;;
62711;SDS011;48772;55.586;37.730;2023-08-06T02:31:16;15.15;;;5.55;;
62711;SDS011;48772;55.586;37.730;2023-08-06T02:33:42;9.20;;;5.78;;
62711;SDS011;48772;55.586;37.730;2023-08-06T02:36:07;12.40;;;6.25;;
62711;SDS011;48772;55.586;37.730;2023-08-06T02:38:33;10.68;;;6.90;;
62711;SDS011;48772;55.586;37.730;2023-08-06T02:41:03;14.75;;;6.68;;
62711;SDS011;48772;55.586;37.730;2023-08-06T02:43:29;14.05;;;6.43;;
62711;SDS011;48772;55.586;37.730;2023-08-06T02:45:59;11.80;;;6.20;;
62711;SDS011;48772;55.586;37.730;2023-08-06T02:48:25;9.68;;;5.80;;
62711;SDS011;48772;55.586;37.730;2023-08-06T02:50:52;11.27;;;6.35;;
62711;SDS011;48772;55.586;37.730;2023-08-06T02:53:22;10.02;;;5.97;;
62711;SDS011;48772;55.586;37.730;2023-08-06T02:55:49;14.80;;;6.68;;
62711;SDS011;48772;55.586;37.730;2023-08-06T02:58:19;7.75;;;6.15;;
62711;SDS011;48772;55.586;37.730;2023-08-06T03:01:02;9.57;;;5.38;;
62711;SDS011;48772;55.586;37.730;2023-08-06T03:03:33;12.38;;;6.50;;
62711;SDS011;48772;55.586;37.730;2023-08-06T03:06:01;8.20;;;5.72;;
62711;SDS011;48772;55.586;37.730;2023-08-06T03:08:36;9.32;;;5.50;;
62711;SDS011;48772;55.586;37.730;2023-08-06T03:11:02;8.27;;;5.93;;
62711;SDS011;48772;55.586;37.730;2023-08-06T03:13:28;10.63;;;6.05;;
62711;SDS011;48772;55.586;37.730;2023-08-06T03:15:55;11.95;;;6.30;;
62711;SDS011;48772;55.586;37.730;2023-08-06T03:18:23;17.88;;;7.47;;
62711;SDS011;48772;55.586;37.730;2023-08-06T03:20:50;21.10;;;7.55;;
62711;SDS011;48772;55.586;37.730;2023-08-06T03:23:17;13.45;;;6.25;;
62711;SDS011;48772;55.586;37.730;2023-08-06T03:25:43;12.95;;;6.80;;
62711;SDS011;48772;55.586;37.730;2023-08-06T03:28:09;14.45;;;6.00;;
62711;SDS011;48772;55.586;37.730;2023-08-06T03:30:36;13.43;;;5.53;;
62711;SDS011;48772;55.586;37.730;2023-08-06T03:33:02;11.88;;;5.50;;
62711;SDS011;48772;55.586;37.730;2023-08-06T03:35:28;9.48;;;5.30;;
62711;SDS011;48772;55.586;37.730;2023-08-06T03:37:54;11.60;;;5.50;;
62711;SDS011;48772;55.586;37.730;2023-08-06T03:40:21;12.60;;;5.90;;
62711;SDS011;48772;55.586;37.730;2023-08-06T03:42:47;11.18;;;6.47;;
62711;SDS011;48772;55.586;37.730;2023-08-06T03:45:13;13.93;;;6.72;;
62711;SDS011;48772;55.586;37.730;2023-08-06T03:47:40;14.75;;;5.82;;
62711;SDS011;48772;55.586;37.730;2023-08-06T03:50:07;14.63;;;6.63;;
62711;SDS011;48772;55.586;37.730;2023-08-06T03:52:33;13.90;;;6.50;;
62711;SDS011;48772;55.586;37.730;2023-08-06T03:54:58;10.05;;;6.43;;
62711;SDS011;48772;55.586;37.730;2023-08-06T03:57:24;18.85;;;6.70;;
62711;SDS011;48772;55.586;37.730;2023-08-06T03:59:50;13.93;;;6.57;;
62711;SDS011;48772;55.586;37.730;2023-08-06T04:02:16;16.92;;;7.03;;
62711;SDS011;48772;55.586;37.730;2023-08-06T04:04:42;12.25;;;6.88;;
62711;SDS011;48772;55.586;37.730;2023-08-06T04:07:08;13.95;;;7.50;;
62711;SDS011;48772;55.586;37.730;2023-08-06T04:09:34;14.38;;;6.53;;
62711;SDS011;48772;55.586;37.730;2023-08-06T04:12:16;20.30;;;7.05;;
62711;SDS011;48772;55.586;37.730;2023-08-06T04:14:41;21.88;;;6.43;;
62711;SDS011;48772;55.586;37.730;2023-08-06T04:17:07;14.95;;;6.60;;
62711;SDS011;48772;55.586;37.730;2023-08-06T04:19:33;14.20;;;6.20;;
62711;SDS011;48772;55.586;37.730;2023-08-06T04:22:00;14.02;;;5.93;;
62711;SDS011;48772;55.586;37.730;2023-08-06T04:24:26;12.65;;;6.50;;
62711;SDS011;48772;55.586;37.730;2023-08-06T04:26:52;21.73;;;7.47;;
62711;SDS011;48772;55.586;37.730;2023-08-06T04:29:17;15.75;;;8.05;;
62711;SDS011;48772;55.586;37.730;2023-08-06T04:31:43;9.20;;;6.57;;
62711;SDS011;48772;55.586;37.730;2023-08-06T04:34:09;16.50;;;6.65;;
62711;SDS011;48772;55.586;37.730;2023-08-06T04:36:37;21.77;;;6.38;;
62711;SDS011;48772;55.586;37.730;2023-08-06T04:39:04;21.60;;;6.50;;
62711;SDS011;48772;55.586;37.730;2023-08-06T04:41:30;14.80;;;6.03;;
62711;SDS011;48772;55.586;37.730;2023-08-06T04:43:59;18.75;;;6.47;;
62711;SDS011;48772;55.586;37.730;2023-08-06T04:46:26;19.05;;;5.97;;
62711;SDS011;48772;55.586;37.730;2023-08-06T04:48:52;14.35;;;6.20;;
62711;SDS011;48772;55.586;37.730;2023-08-06T04:51:17;26.77;;;6.88;;
62711;SDS011;48772;55.586;37.730;2023-08-06T04:53:43;20.50;;;5.70;;
62711;SDS011;48772;55.586;37.730;2023-08-06T04:56:09;17.42;;;6.13;;
62711;SDS011;48772;55.586;37.730;2023-08-06T04:58:35;19.55;;;6.30;;
62711;SDS011;48772;55.586;37.730;2023-08-06T05:01:01;14.32;;;6.30;;
62711;SDS011;48772;55.586;37.730;2023-08-06T05:03:26;15.35;;;6.07;;
62711;SDS011;48772;55.586;37.730;2023-08-06T05:05:52;16.63;;;6.88;;
62711;SDS011;48772;55.586;37.730;2023-08-06T05:08:18;13.40;;;6.18;;
62711;SDS011;48772;55.586;37.730;2023-08-06T05:10:44;17.23;;;7.00;;
62711;SDS011;48772;55.586;37.730;2023-08-06T05:13:11;17.42;;;6.68;;
62711;SDS011;48772;55.586;37.730;2023-08-06T05:15:37;12.57;;;6.10;;
62711;SDS011;48772;55.586;37.730;2023-08-06T05:18:04;17.83;;;6.18;;
62711;SDS011;48772;55.586;37.730;2023-08-06T05:20:29;14.75;;;5.80;;
62711;SDS011;48772;55.586;37.730;2023-08-06T05:22:55;14.10;;;5.95;;
62711;SDS011;48772;55.586;37.730;2023-08-06T05:25:21;16.15;;;5.47;;
62711;SDS011;48772;55.586;37.730;2023-08-06T05:27:47;12.55;;;5.65;;
62711;SDS011;48772;55.586;37.730;2023-08-06T05:30:13;16.20;;;5.93;;
62711;SDS011;48772;55.586;37.730;2023-08-06T05:32:39;19.20;;;5.25;;
62711;SDS011;48772;55.586;37.730;2023-08-06T05:35:04;17.13;;;5.50;;
62711;SDS011;48772;55.586;37.730;2023-08-06T05:37:31;14.80;;;5.85;;
62711;SDS011;48772;55.586;37.730;2023-08-06T05:39:57;17.23;;;7.05;;
62711;SDS011;48772;55.586;37.730;2023-08-06T05:42:23;14.00;;;5.85;;
62711;SDS011;48772;55.586;37.730;2023-08-06T05:44:49;12.57;;;6.53;;
62711;SDS011;48772;55.586;37.730;2023-08-06T05:47:15;14.00;;;6.13;;
62711;SDS011;48772;55.586;37.730;2023-08-06T05:49:40;13.38;;;5.63;;
62711;SDS011;48772;55.586;37.730;2023-08-06T05:52:06;13.88;;;5.57;;
62711;SDS011;48772;55.586;37.730;2023-08-06T05:54:33;11.32;;;6.07;;
62711;SDS011;48772;55.586;37.730;2023-08-06T05:56:59;12.30;;;6.25;;
62711;SDS011;48772;55.586;37.730;2023-08-06T05:59:25;12.18;;;6.10;;
62711;SDS011;48772;55.586;37.730;2023-08-06T06:01:51;18.50;;;5.90;;
62711;SDS011;48772;55.586;37.730;2023-08-06T06:04:17;15.90;;;5.80;;
62711;SDS011;48772;55.586;37.730;2023-08-06T06:06:43;11.13;;;5.50;;
62711;SDS011;48772;55.586;37.730;2023-08-06T06:09:08;14.60;;;6.78;;
62711;SDS011;48772;55.586;37.730;2023-08-06T06:11:34;9.70;;;5.03;;
62711;SDS011;48772;55.586;37.730;2023-08-06T06:14:00;10.40;;;4.90;;
62711;SDS011;48772;55.586;37.730;2023-08-06T06:16:26;9.93;;;5.10;;
62711;SDS011;48772;55.586;37.730;2023-08-06T06:18:52;10.13;;;5.00;;
62711;SDS011;48772;55.586;37.730;2023-08-06T06:21:20;12.20;;;4.53;;
62711;SDS011;48772;55.586;37.730;2023-08-06T06:23:45;9.77;;;4.60;;
62711;SDS011;48772;55.586;37.730;2023-08-06T06:26:12;9.25;;;4.55;;
62711;SDS011;48772;55.586;37.730;2023-08-06T06:28:38;8.18;;;4.85;;
62711;SDS011;48772;55.586;37.730;2023-08-06T06:31:04;9.27;;;4.05;;
62711;SDS011;48772;55.586;37.730;2023-08-06T06:33:30;10.07;;;4.55;;
62711;SDS011;48772;55.586;37.730;2023-08-06T06:35:55;8.95;;;5.22;;
62711;SDS011;48772;55.586;37.730;2023-08-06T06:38:21;16.25;;;4.90;;
62711;SDS011;48772;55.586;37.730;2023-08-06T06:40:56;7.30;;;4.90;;
62711;SDS011;48772;55.586;37.730;2023-08-06T06:43:23;15.30;;;4.88;;
62711;SDS011;48772;55.586;37.730;2023-08-06T06:45:53;8.43;;;4.20;;
62711;SDS011;48772;55.586;37.730;2023-08-06T06:48:21;8.55;;;4.72;;
62711;SDS011;48772;55.586;37.730;2023-08-06T06:50:47;11.10;;;4.40;;
62711;SDS011;48772;55.586;37.730;2023-08-06T06:53:13;9.15;;;3.83;;
62711;SDS011;48772;55.586;37.730;2023-08-06T06:55:39;10.48;;;4.10;;
62711;SDS011;48772;55.586;37.730;2023-08-06T06:58:05;8.57;;;3.85;;
62711;SDS011;48772;55.586;37.730;2023-08-06T07:00:31;9.52;;;5.20;;
62711;SDS011;48772;55.586;37.730;2023-08-06T07:02:57;6.82;;;4.00;;
62711;SDS011;48772;55.586;37.730;2023-08-06T07:05:22;10.85;;;4.20;;
62711;SDS011;48772;55.586;37.730;2023-08-06T07:07:48;9.02;;;3.83;;
62711;SDS011;48772;55.586;37.730;2023-08-06T07:10:14;6.63;;;4.03;;
62711;SDS011;48772;55.586;37.730;2023-08-06T07:12:40;8.30;;;4.07;;
62711;SDS011;48772;55.586;37.730;2023-08-06T07:15:06;7.50;;;3.90;;
62711;SDS011;48772;55.586;37.730;2023-08-06T07:17:32;8.25;;;3.97;;
62711;SDS011;48772;55.586;37.730;2023-08-06T07:19:58;8.88;;;4.10;;
62711;SDS011;48772;55.586;37.730;2023-08-06T07:22:23;7.50;;;3.83;;
62711;SDS011;48772;55.586;37.730;2023-08-06T07:24:49;6.80;;;4.00;;
62711;SDS011;48772;55.586;37.730;2023-08-06T07:27:15;4.82;;;3.78;;
62711;SDS011;48772;55.586;37.730;2023-08-06T07:29:41;7.20;;;4.05;;
62711;SDS011;48772;55.586;37.730;2023-08-06T07:32:07;8.15;;;3.70;;
62711;SDS011;48772;55.586;37.730;2023-08-06T07:34:33;6.18;;;4.93;;
62711;SDS011;48772;55.586;37.730;2023-08-06T07:36:59;5.53;;;3.88;;
62711;SDS011;48772;55.586;37.730;2023-08-06T07:39:25;6.85;;;3.55;;
62711;SDS011;48772;55.586;37.730;2023-08-06T07:41:51;5.55;;;3.80;;
62711;SDS011;48772;55.586;37.730;2023-08-06T07:44:16;5.32;;;3.85;;
62711;SDS011;48772;55.586;37.730;2023-08-06T07:46:42;6.82;;;3.75;;
62711;SDS011;48772;55.586;37.730;2023-08-06T07:49:09;6.63;;;3.75;;
62711;SDS011;48772;55.586;37.730;2023-08-06T07:51:36;8.20;;;3.85;;
62711;SDS011;48772;55.586;37.730;2023-08-06T07:54:02;6.28;;;3.85;;
62711;SDS011;48772;55.586;37.730;2023-08-06T07:56:28;12.68;;;3.80;;
62711;SDS011;48772;55.586;37.730;2023-08-06T07:58:54;10.98;;;4.00;;
62711;SDS011;48772;55.586;37.730;2023-08-06T08:01:20;5.53;;;4.25;;
62711;SDS011;48772;55.586;37.730;2023-08-06T08:03:46;9.55;;;4.20;;
62711;SDS011;48772;55.586;37.730;2023-08-06T08:06:11;10.15;;;3.85;;
62711;SDS011;48772;55.586;37.730;2023-08-06T08:08:37;12.95;;;3.90;;
62711;SDS011;48772;55.586;37.730;2023-08-06T08:11:05;7.25;;;3.70;;
62711;SDS011;48772;55.586;37.730;2023-08-06T08:13:31;8.70;;;3.55;;
62711;SDS011;48772;55.586;37.730;2023-08-06T08:15:57;7.47;;;3.60;;
62711;SDS011;48772;55.586;37.730;2023-08-06T08:18:24;8.65;;;3.67;;
62711;SDS011;48772;55.586;37.730;2023-08-06T08:20:50;5.63;;;3.78;;
62711;SDS011;48772;55.586;37.730;2023-08-06T08:23:16;4.55;;;3.50;;
62711;SDS011;48772;55.586;37.730;2023-08-06T08:25:43;5.55;;;3.50;;
62711;SDS011;48772;55.586;37.730;2023-08-06T08:28:08;9.00;;;3.42;;
62711;SDS011;48772;55.586;37.730;2023-08-06T08:30:34;8.98;;;3.85;;
62711;SDS011;48772;55.586;37.730;2023-08-06T08:33:00;8.65;;;3.65;;
62711;SDS011;48772;55.586;37.730;2023-08-06T08:35:26;9.85;;;3.90;;
62711;SDS011;48772;55.586;37.730;2023-08-06T08:37:52;6.68;;;3.78;;
62711;SDS011;48772;55.586;37.730;2023-08-06T08:40:18;8.32;;;3.55;;
62711;SDS011;48772;55.586;37.730;2023-08-06T08:42:45;8.40;;;4.35;;
62711;SDS011;48772;55.586;37.730;2023-08-06T08:45:12;7.75;;;3.88;;
62711;SDS011;48772;55.586;37.730;2023-08-06T08:47:41;15.05;;;3.90;;
62711;SDS011;48772;55.586;37.730;2023-08-06T08:50:08;5.55;;;3.83;;
62711;SDS011;48772;55.586;37.730;2023-08-06T08:52:36;6.60;;;3.25;;
62711;SDS011;48772;55.586;37.730;2023-08-06T08:55:04;7.00;;;3.70;;
62711;SDS011;48772;55.586;37.730;2023-08-06T08:57:32;8.27;;;4.30;;
62711;SDS011;48772;55.586;37.730;2023-08-06T08:59:57;11.20;;;3.65;;
62711;SDS011;48772;55.586;37.730;2023-08-06T09:02:23;4.75;;;3.80;;
62711;SDS011;48772;55.586;37.730;2023-08-06T09:04:54;5.35;;;3.65;;
62711;SDS011;48772;55.586;37.730;2023-08-06T09:07:25;6.90;;;3.70;;
62711;SDS011;48772;55.586;37.730;2023-08-06T09:09:52;5.90;;;4.20;;
62711;SDS011;48772;55.586;37.730;2023-08-06T09:12:19;12.30;;;3.70;;
62711;SDS011;48772;55.586;37.730;2023-08-06T09:14:46;10.02;;;4.05;;
62711;SDS011;48772;55.586;37.730;2023-08-06T09:17:12;7.28;;;3.97;;
62711;SDS011;48772;55.586;37.730;2023-08-06T09:19:42;7.50;;;3.60;;
62711;SDS011;48772;55.586;37.730;2023-08-06T09:22:12;4.72;;;3.63;;
62711;SDS011;48772;55.586;37.730;2023-08-06T09:24:39;8.77;;;3.92;;
62711;SDS011;48772;55.586;37.730;2023-08-06T09:27:16;5.60;;;3.65;;
62711;SDS011;48772;55.586;37.730;2023-08-06T09:29:42;8.77;;;4.03;;
62711;SDS011;48772;55.586;37.730;2023-08-06T09:32:09;7.72;;;3.72;;
62711;SDS011;48772;55.586;37.730;2023-08-06T09:34:35;7.82;;;3.70;;
62711;SDS011;48772;55.586;37.730;2023-08-06T09:37:00;10.48;;;3.55;;
62711;SDS011;48772;55.586;37.730;2023-08-06T09:39:27;9.40;;;3.70;;
62711;SDS011;48772;55.586;37.730;2023-08-06T09:41:58;8.63;;;3.58;;
62711;SDS011;48772;55.586;37.730;2023-08-06T09:44:26;5.43;;;3.60;;
62711;SDS011;48772;55.586;37.730;2023-08-06T09:51:57;5.45;;;4.00;;
62711;SDS011;48772;55.586;37.730;2023-08-06T09:54:25;8.85;;;3.95;;
62711;SDS011;48772;55.586;37.730;2023-08-06T09:56:53;5.68;;;4.00;;
62711;SDS011;48772;55.586;37.730;2023-08-06T09:59:20;6.78;;;3.50;;
62711;SDS011;48772;55.586;37.730;2023-08-06T10:01:46;6.43;;;3.53;;
62711;SDS011;48772;55.586;37.730;2023-08-06T10:04:13;6.05;;;3.40;;
62711;SDS011;48772;55.586;37.730;2023-08-06T10:06:42;7.53;;;3.88;;
62711;SDS011;48772;55.586;37.730;2023-08-06T10:09:11;9.15;;;3.90;;
62711;SDS011;48772;55.586;37.730;2023-08-06T10:11:38;6.35;;;3.90;;
62711;SDS011;48772;55.586;37.730;2023-08-06T10:17:00;4.78;;;3.75;;
62711;SDS011;48772;55.586;37.730;2023-08-06T10:19:27;10.30;;;3.65;;
62711;SDS011;48772;55.586;37.730;2023-08-06T10:22:13;7.65;;;3.70;;
62711;SDS011;48772;55.586;37.730;2023-08-06T10:27:29;8.00;;;3.60;;
62711;SDS011;48772;55.586;37.730;2023-08-06T10:32:51;7.20;;;3.72;;
62711;SDS011;48772;55.586;37.730;2023-08-06T10:35:31;6.47;;;3.85;;
62711;SDS011;48772;55.586;37.730;2023-08-06T10:38:21;4.70;;;3.85;;
62711;SDS011;48772;55.586;37.730;2023-08-06T10:43:36;7.32;;;4.40;;
62711;SDS011;48772;55.586;37.730;2023-08-06T10:46:10;8.15;;;3.70;;
62711;SDS011;48772;55.586;37.730;2023-08-06T10:48:46;6.75;;;4.20;;
62711;SDS011;48772;55.586;37.730;2023-08-06T10:51:12;4.25;;;3.58;;
62711;SDS011;48772;55.586;37.730;2023-08-06T10:53:44;6.75;;;3.38;;
62711;SDS011;48772;55.586;37.730;2023-08-06T10:56:15;3.53;;;3.22;;
62711;SDS011;48772;55.586;37.730;2023-08-06T10:58:42;3.58;;;2.97;;
62711;SDS011;48772;55.586;37.730;2023-08-06T11:01:08;4.80;;;3.58;;
62711;SDS011;48772;55.586;37.730;2023-08-06T11:03:35;5.32;;;3.28;;
62711;SDS011;48772;55.586;37.730;2023-08-06T11:06:02;5.10;;;4.00;;
62711;SDS011;48772;55.586;37.730;2023-08-06T11:08:29;6.88;;;3.83;;
62711;SDS011;48772;55.586;37.730;2023-08-06T11:11:11;5.55;;;4.03;;
62711;SDS011;48772;55.586;37.730;2023-08-06T11:13:44;8.13;;;4.00;;
62711;SDS011;48772;55.586;37.730;2023-08-06T11:16:13;7.57;;;3.90;;
62711;SDS011;48772;55.586;37.730;2023-08-06T11:18:50;8.63;;;3.75;;
62711;SDS011;48772;55.586;37.730;2023-08-06T11:21:22;5.05;;;3.67;;
62711;SDS011;48772;55.586;37.730;2023-08-06T11:23:50;6.57;;;3.60;;
62711;SDS011;48772;55.586;37.730;2023-08-06T11:26:20;8.98;;;4.00;;
62711;SDS011;48772;55.586;37.730;2023-08-06T11:28:46;5.60;;;3.75;;
62711;SDS011;48772;55.586;37.730;2023-08-06T11:31:19;9.00;;;4.00;;
62711;SDS011;48772;55.586;37.730;2023-08-06T11:33:46;5.30;;;4.20;;
62711;SDS011;48772;55.586;37.730;2023-08-06T11:36:12;8.40;;;4.40;;
62711;SDS011;48772;55.586;37.730;2023-08-06T11:38:37;8.63;;;3.67;;
62711;SDS011;48772;55.586;37.730;2023-08-06T11:41:03;6.10;;;4.05;;
62711;SDS011;48772;55.586;37.730;2023-08-06T11:43:30;6.53;;;4.00;;
62711;SDS011;48772;55.586;37.730;2023-08-06T11:45:56;11.27;;;4.07;;
62711;SDS011;48772;55.586;37.730;2023-08-06T11:48:22;5.65;;;3.92;;
62711;SDS011;48772;55.586;37.730;2023-08-06T11:50:48;7.00;;;4.20;;
62711;SDS011;48772;55.586;37.730;2023-08-06T11:53:14;5.40;;;4.00;;
62711;SDS011;48772;55.586;37.730;2023-08-06T11:55:40;9.23;;;3.97;;
62711;SDS011;48772;55.586;37.730;2023-08-06T11:58:08;9.45;;;4.10;;
62711;SDS011;48772;55.586;37.730;2023-08-06T12:00:36;10.80;;;4.10;;
62711;SDS011;48772;55.586;37.730;2023-08-06T12:03:04;6.75;;;4.00;;
62711;SDS011;48772;55.586;37.730;2023-08-06T12:05:30;10.23;;;3.70;;
62711;SDS011;48772;55.586;37.730;2023-08-06T12:07:59;7.93;;;3.90;;
62711;SDS011;48772;55.586;37.730;2023-08-06T12:10:27;7.97;;;3.60;;
62711;SDS011;48772;55.586;37.730;2023-08-06T12:12:55;4.75;;;3.70;;
62711;SDS011;48772;55.586;37.730;2023-08-06T12:15:21;6.85;;;4.00;;
62711;SDS011;48772;55.586;37.730;2023-08-06T12:17:49;7.43;;;4.00;;
62711;SDS011;48772;55.586;37.730;2023-08-06T12:20:15;9.38;;;4.20;;
62711;SDS011;48772;55.586;37.730;2023-08-06T12:22:41;9.38;;;3.85;;
62711;SDS011;48772;55.586;37.730;2023-08-06T12:25:07;17.45;;;4.22;;
62711;SDS011;48772;55.586;37.730;2023-08-06T12:27:37;5.03;;;3.78;;
62711;SDS011;48772;55.586;37.730;2023-08-06T12:30:04;5.68;;;3.63;;
62711;SDS011;48772;55.586;37.730;2023-08-06T12:32:35;8.20;;;3.63;;
62711;SDS011;48772;55.586;37.730;2023-08-06T12:35:02;6.35;;;3.90;;
62711;SDS011;48772;55.586;37.730;2023-08-06T12:37:33;11.20;;;4.30;;
62711;SDS011;48772;55.586;37.730;2023-08-06T12:39:59;6.43;;;4.70;;
62711;SDS011;48772;55.586;37.730;2023-08-06T12:42:25;6.88;;;4.25;;
62711;SDS011;48772;55.586;37.730;2023-08-06T12:44:52;9.00;;;4.35;;
62711;SDS011;48772;55.586;37.730;2023-08-06T12:47:17;8.68;;;4.43;;
62711;SDS011;48772;55.586;37.730;2023-08-06T12:49:45;6.13;;;4.13;;
62711;SDS011;48772;55.586;37.730;2023-08-06T12:52:11;5.40;;;4.03;;
62711;SDS011;48772;55.586;37.730;2023-08-06T12:54:41;7.78;;;4.55;;
62711;SDS011;48772;55.586;37.730;2023-08-06T12:57:07;8.20;;;4.20;;
62711;SDS011;48772;55.586;37.730;2023-08-06T12:59:33;14.52;;;4.15;;
62711;SDS011;48772;55.586;37.730;2023-08-06T13:01:59;6.65;;;4.45;;
62711;SDS011;48772;55.586;37.730;2023-08-06T13:04:26;10.38;;;4.45;;
62711;SDS011;48772;55.586;37.730;2023-08-06T13:06:53;7.63;;;4.25;;
62711;SDS011;48772;55.586;37.730;2023-08-06T13:09:20;5.78;;;3.95;;
62711;SDS011;48772;55.586;37.730;2023-08-06T13:11:46;5.22;;;3.78;;
62711;SDS011;48772;55.586;37.730;2023-08-06T13:14:16;10.75;;;3.95;;
62711;SDS011;48772;55.586;37.730;2023-08-06T13:16:43;10.65;;;4.00;;
62711;SDS011;48772;55.586;37.730;2023-08-06T13:19:10;11.60;;;4.47;;
62711;SDS011;48772;55.586;37.730;2023-08-06T13:24:05;11.27;;;4.30;;
62711;SDS011;48772;55.586;37.730;2023-08-06T13:26:31;8.75;;;4.40;;
62711;SDS011;48772;55.586;37.730;2023-08-06T13:28:57;10.50;;;4.25;;
62711;SDS011;48772;55.586;37.730;2023-08-06T13:31:24;12.10;;;4.35;;
62711;SDS011;48772;55.586;37.730;2023-08-06T13:33:50;7.03;;;4.47;;
62711;SDS011;48772;55.586;37.730;2023-08-06T13:36:16;10.43;;;4.63;;
62711;SDS011;48772;55.586;37.730;2023-08-06T13:38:43;9.00;;;4.47;;
62711;SDS011;48772;55.586;37.730;2023-08-06T13:41:08;7.43;;;4.70;;
62711;SDS011;48772;55.586;37.730;2023-08-06T13:43:34;10.10;;;4.65;;
62711;SDS011;48772;55.586;37.730;2023-08-06T13:46:00;10.23;;;4.57;;
62711;SDS011;48772;55.586;37.730;2023-08-06T13:48:26;9.68;;;4.78;;
62711;SDS011;48772;55.586;37.730;2023-08-06T13:50:52;11.45;;;4.68;;
62711;SDS011;48772;55.586;37.730;2023-08-06T13:53:18;12.38;;;4.45;;
62711;SDS011;48772;55.586;37.730;2023-08-06T13:55:44;9.30;;;4.03;;
62711;SDS011;48772;55.586;37.730;2023-08-06T13:58:10;10.65;;;4.70;;
62711;SDS011;48772;55.586;37.730;2023-08-06T14:00:36;7.22;;;4.25;;
62711;SDS011;48772;55.586;37.730;2023-08-06T14:03:02;7.65;;;4.25;;
62711;SDS011;48772;55.586;37.730;2023-08-06T14:05:28;6.40;;;4.10;;
62711;SDS011;48772;55.586;37.730;2023-08-06T14:07:53;5.50;;;4.00;;
62711;SDS011;48772;55.586;37.730;2023-08-06T14:10:19;7.38;;;3.97;;
62711;SDS011;48772;55.586;37.730;2023-08-06T14:12:45;8.65;;;4.13;;
62711;SDS011;48772;55.586;37.730;2023-08-06T14:15:11;6.90;;;3.92;;
62711;SDS011;48772;55.586;37.730;2023-08-06T14:17:37;8.88;;;4.43;;
62711;SDS011;48772;55.586;37.730;2023-08-06T14:20:03;7.50;;;4.63;;
62711;SDS011;48772;55.586;37.730;2023-08-06T14:22:30;8.98;;;4.13;;
62711;SDS011;48772;55.586;37.730;2023-08-06T14:24:59;10.10;;;4.38;;
62711;SDS011;48772;55.586;37.730;2023-08-06T14:27:25;12.93;;;4.07;;
62711;SDS011;48772;55.586;37.730;2023-08-06T14:29:51;8.52;;;4.40;;
62711;SDS011;48772;55.586;37.730;2023-08-06T14:32:17;8.07;;;4.10;;
62711;SDS011;48772;55.586;37.730;2023-08-06T14:34:46;10.65;;;4.35;;
62711;SDS011;48772;55.586;37.730;2023-08-06T14:37:13;5.75;;;4.20;;
62711;SDS011;48772;55.586;37.730;2023-08-06T14:39:39;5.40;;;4.03;;
62711;SDS011;48772;55.586;37.730;2023-08-06T14:42:05;7.70;;;4.13;;
62711;SDS011;48772;55.586;37.730;2023-08-06T14:44:31;5.32;;;3.88;;
62711;SDS011;48772;55.586;37.730;2023-08-06T14:46:56;13.55;;;4.43;;
62711;SDS011;48772;55.586;37.730;2023-08-06T14:49:23;10.68;;;4.43;;
62711;SDS011;48772;55.586;37.730;2023-08-06T14:51:49;7.82;;;4.60;;